VHUNL YSCN-YGTH

Flight info

Callsign VHUNL
Flight time N/A
Altitude 8000
Route YORG DCT YCDO
Aircraft SR22/L-SDGRY/S

Departure

Time 2026-05-07 08:52
Airport Camden Airport (YSCN)

Arrival

Time N/A
Airport Griffith Airport (YGTH)
Time Latitude Longitude Altitude Speed Heading
2026-05-07 08:37 -34.04190 150.68705 224 ft 0 kts 226°
2026-05-07 08:44 -34.04193 150.68701 224 ft 4 kts 226°
2026-05-07 08:44 -34.04238 150.68648 221 ft 14 kts 224°
2026-05-07 08:44 -34.04212 150.68636 221 ft 12 kts 61°
2026-05-07 08:45 -34.04165 150.68697 226 ft 8 kts 39°
2026-05-07 08:45 -34.04156 150.68705 227 ft 0 kts 38°
2026-05-07 08:46 -34.04135 150.68725 228 ft 9 kts 37°
2026-05-07 08:46 -34.04163 150.68787 230 ft 14 kts 136°
2026-05-07 08:46 -34.04183 150.68810 230 ft 0 kts 135°
2026-05-07 08:47 -34.04194 150.68825 230 ft 8 kts 135°
2026-05-07 08:47 -34.04208 150.68767 226 ft 16 kts 323°
2026-05-07 08:47 -34.04117 150.68669 227 ft 17 kts 322°
2026-05-07 08:48 -34.04060 150.68547 225 ft 20 kts 267°
2026-05-07 08:48 -34.04064 150.68409 226 ft 14 kts 268°
2026-05-07 08:48 -34.04077 150.68307 225 ft 11 kts 247°
2026-05-07 08:48 -34.04080 150.68273 224 ft 0 kts 319°
2026-05-07 08:50 -34.04071 150.68251 224 ft 10 kts 267°
2026-05-07 08:50 -34.04082 150.68167 223 ft 8 kts 298°
2026-05-07 08:50 -34.04049 150.68120 226 ft 6 kts 248°
2026-05-07 08:51 -34.04044 150.68092 226 ft 4 kts
2026-05-07 08:51 -34.04032 150.68125 226 ft 0 kts 69°
2026-05-07 08:51 -34.03970 150.68291 225 ft 59 kts 66°
2026-05-07 08:52 -34.03727 150.68926 330 ft 94 kts 65°
2026-05-07 08:52 -34.03447 150.69646 641 ft 95 kts 63°
2026-05-07 08:52 -34.03154 150.70371 986 ft 101 kts 60°
2026-05-07 08:52 -34.02555 150.70720 1272 ft 114 kts 333°
2026-05-07 08:53 -34.02293 150.69947 1766 ft 102 kts 259°
2026-05-07 08:53 -34.02468 150.69094 2115 ft 111 kts 256°
2026-05-07 08:53 -34.02605 150.68168 2520 ft 112 kts 259°
2026-05-07 08:53 -34.02759 150.67232 2910 ft 115 kts 261°
2026-05-07 08:54 -34.02907 150.66227 3078 ft 134 kts 258°
2026-05-07 08:54 -34.02954 150.65032 3102 ft 154 kts 287°
2026-05-07 08:54 -34.02231 150.64065 3122 ft 165 kts 333°
2026-05-07 08:54 -34.01133 150.63569 3158 ft 172 kts 340°
2026-05-07 08:55 -34.00023 150.63110 3176 ft 170 kts 340°
2026-05-07 08:55 -33.98947 150.62562 3176 ft 168 kts 323°
2026-05-07 08:55 -33.98303 150.61419 3178 ft 166 kts 294°
2026-05-07 08:55 -33.97835 150.60149 3181 ft 165 kts 294°
2026-05-07 08:56 -33.97353 150.58888 3181 ft 166 kts 295°
2026-05-07 08:56 -33.96856 150.57635 3181 ft 165 kts 295°
2026-05-07 08:56 -33.96350 150.56389 3181 ft 166 kts 296°
2026-05-07 08:56 -33.95836 150.55153 3178 ft 165 kts 296°
2026-05-07 08:57 -33.95316 150.53926 3183 ft 164 kts 297°
2026-05-07 08:57 -33.94796 150.52718 3238 ft 160 kts 297°
2026-05-07 08:57 -33.94283 150.51548 3358 ft 156 kts 297°
2026-05-07 08:57 -33.93780 150.50407 3472 ft 153 kts 297°
2026-05-07 08:58 -33.93282 150.49283 3587 ft 151 kts 297°
2026-05-07 08:58 -33.92793 150.48182 3735 ft 148 kts 297°
2026-05-07 08:58 -33.92307 150.47093 3880 ft 147 kts 297°
2026-05-07 08:58 -33.91830 150.46006 4025 ft 146 kts 296°
2026-05-07 08:59 -33.91387 150.44909 4173 ft 146 kts 295°
2026-05-07 08:59 -33.90953 150.43811 4320 ft 145 kts 295°
2026-05-07 08:59 -33.90519 150.42708 4469 ft 146 kts 295°
2026-05-07 08:59 -33.90089 150.41605 4617 ft 145 kts 294°
2026-05-07 09:00 -33.89660 150.40499 4771 ft 147 kts 295°
2026-05-07 09:00 -33.89228 150.39388 4919 ft 147 kts 295°
2026-05-07 09:00 -33.88796 150.38276 5068 ft 147 kts 295°
2026-05-07 09:00 -33.88366 150.37165 5217 ft 147 kts 294°
2026-05-07 09:01 -33.87937 150.36051 5367 ft 147 kts 294°
2026-05-07 09:01 -33.87508 150.34939 5516 ft 146 kts 294°
2026-05-07 09:01 -33.87080 150.33829 5666 ft 146 kts 294°
2026-05-07 09:01 -33.86650 150.32714 5818 ft 147 kts 294°
2026-05-07 09:02 -33.86218 150.31591 5967 ft 150 kts 294°
2026-05-07 09:02 -33.85760 150.30393 6004 ft 164 kts 294°
2026-05-07 09:02 -33.85271 150.29101 6013 ft 174 kts 294°
2026-05-07 09:02 -33.84764 150.27755 6013 ft 178 kts 294°
2026-05-07 09:03 -33.84249 150.26388 6010 ft 180 kts 294°
2026-05-07 09:03 -33.83733 150.25020 6007 ft 180 kts 294°
2026-05-07 09:03 -33.83213 150.23648 6013 ft 179 kts 294°
2026-05-07 09:03 -33.82702 150.22304 6001 ft 178 kts 294°
2026-05-07 09:04 -33.82191 150.20964 5999 ft 176 kts 294°
2026-05-07 09:04 -33.81682 150.19630 5998 ft 175 kts 294°
2026-05-07 09:04 -33.81179 150.18310 5996 ft 172 kts 294°
2026-05-07 09:04 -33.80677 150.16995 5993 ft 173 kts 294°
2026-05-07 09:05 -33.80274 150.15942 5991 ft 173 kts 294°
2026-05-07 09:05 -33.79998 150.15220 6021 ft 163 kts 294°
2026-05-07 09:06 -33.79515 150.13960 6016 ft 168 kts 294°
2026-05-07 09:06 -33.79123 150.12937 6011 ft 168 kts 294°
2026-05-07 09:06 -33.79060 150.12774 6020 ft 167 kts 294°
2026-05-07 09:06 -33.78582 150.11525 6017 ft 163 kts 294°
2026-05-07 09:07 -33.78113 150.10296 6014 ft 160 kts 294°
2026-05-07 09:07 -33.77648 150.09069 6012 ft 164 kts 294°
2026-05-07 09:07 -33.77175 150.07821 6007 ft 164 kts 294°
2026-05-07 09:07 -33.76691 150.06553 6012 ft 168 kts 294°
2026-05-07 09:08 -33.76208 150.05274 6007 ft 166 kts 294°
2026-05-07 09:08 -33.75752 150.04075 6000 ft 163 kts 294°